Fort Walton Beach, Florida
Current Conditions -  °F | °C
As of 9:56 PM on Wednesday 17 Dec 2014 (Local Time) from KQBL Reporting Station
Broken Clouds Broken Clouds  
Wind Chill: 47°   Ceiling: 24000
Heat Index: 47°   Visibility: 10mi
Dew Point: 42°   Wind: 2mph
Humidity: 84%   Direction: 330°NNW
Pressure: 30.21"   Gusts: NA
Location:  30.4°N, 86.61°W
Report Text: KQBL 180356Z AUTO 33002KT 10SM BKN240 08/06 A3021 RMK AO2 SLP236 T00830057
Loading
Personal Weather Stations






























Interactive Weather Map New forecast layout! Learn more

10-Day Weather Forecast

Advertisements
Track Severe Weather on mobile